createdAt,value
2022-08-02T00:00:12.662Z,79.84
2022-08-02T00:02:39.760Z,80.19
2022-08-02T00:05:07.260Z,80.30
2022-08-02T00:07:40.521Z,80.45
2022-08-02T00:10:10.720Z,80.62
2022-08-02T00:12:38.083Z,80.25
2022-08-02T00:15:07.339Z,80.31
2022-08-02T00:17:34.255Z,80.54
2022-08-02T00:20:02.198Z,80.72
2022-08-02T00:22:29.073Z,80.91
2022-08-02T00:24:56.137Z,81.05
2022-08-02T00:27:23.035Z,81.01
2022-08-02T00:29:53.354Z,81.30
2022-08-02T00:32:21.725Z,81.43
2022-08-02T00:34:48.596Z,81.72
2022-08-02T00:37:15.484Z,81.46
2022-08-02T00:39:43.062Z,81.62
2022-08-02T00:42:10.789Z,81.78
2022-08-02T00:44:37.922Z,81.56
2022-08-02T00:47:04.869Z,81.65
2022-08-02T00:49:32.990Z,81.62
2022-08-02T00:52:01.371Z,81.69
2022-08-02T00:54:28.186Z,81.51
2022-08-02T00:56:54.937Z,81.70
2022-08-02T00:59:21.738Z,81.79
2022-08-02T01:01:56.102Z,81.91
2022-08-02T01:04:30.600Z,81.83
2022-08-02T01:07:13.557Z,81.72
2022-08-02T01:09:45.004Z,81.70
2022-08-02T01:12:12.879Z,81.84
2022-08-02T01:14:45.490Z,81.81
2022-08-02T01:17:33.310Z,82.09
2022-08-02T01:20:37.040Z,82.26
2022-08-02T01:23:26.079Z,82.05
2022-08-02T01:25:58.982Z,82.11
2022-08-02T01:29:08.655Z,82.20
2022-08-02T01:32:19.370Z,82.26
2022-08-02T01:34:53.092Z,82.49
2022-08-02T01:37:32.363Z,82.49
2022-08-02T01:40:05.113Z,82.46
2022-08-02T01:42:33.275Z,82.34
2022-08-02T01:45:01.706Z,82.72
2022-08-02T01:47:33.298Z,82.70
2022-08-02T01:50:02.736Z,83.04
2022-08-02T01:52:32.562Z,83.39
2022-08-02T01:55:18.407Z,83.58
2022-08-02T01:57:49.708Z,83.37
2022-08-02T02:00:17.835Z,83.42
2022-08-02T02:02:47.551Z,83.15
2022-08-02T02:05:17.057Z,83.07
2022-08-02T02:07:45.626Z,83.20
2022-08-02T02:10:15.569Z,83.32
2022-08-02T02:12:46.685Z,82.99
2022-08-02T02:15:14.186Z,82.68
2022-08-02T02:18:11.865Z,82.92
2022-08-02T02:20:34.521Z,82.95
2022-08-02T02:23:01.757Z,83.23
2022-08-02T02:25:35.618Z,83.30
2022-08-02T02:28:30.217Z,83.34
2022-08-02T02:31:19.343Z,83.24
2022-08-02T02:33:55.015Z,83.25
2022-08-02T02:36:22.992Z,83.17
2022-08-02T02:38:51.739Z,83.31
2022-08-02T02:41:21.089Z,83.14
2022-08-02T02:43:49.083Z,83.09
2022-08-02T02:46:18.189Z,83.22
2022-08-02T02:48:45.233Z,83.17
2022-08-02T02:51:13.931Z,83.16
2022-08-02T02:54:31.015Z,83.05
2022-08-02T02:56:30.283Z,82.95
2022-08-02T02:58:57.678Z,83.29
2022-08-02T03:01:55.544Z,83.49
2022-08-02T03:04:21.963Z,83.46
2022-08-02T03:06:48.927Z,83.77
2022-08-02T03:09:15.652Z,83.84
2022-08-02T03:11:42.823Z,83.76
2022-08-02T03:14:11.670Z,83.65
2022-08-02T03:16:53.120Z,83.39
2022-08-02T03:19:22.279Z,83.69
2022-08-02T03:21:57.473Z,83.94
2022-08-02T03:24:28.292Z,83.68
2022-08-02T03:26:55.758Z,83.49
2022-08-02T03:29:22.603Z,83.43
2022-08-02T03:31:49.892Z,83.30
2022-08-02T03:34:16.689Z,83.57
2022-08-02T03:36:48.081Z,83.77
2022-08-02T03:39:15.810Z,83.55
2022-08-02T03:41:43.822Z,83.71
2022-08-02T03:44:12.031Z,83.68
2022-08-02T03:46:39.978Z,83.71
2022-08-02T03:49:11.058Z,83.71
2022-08-02T03:51:38.507Z,83.45
2022-08-02T03:54:05.484Z,83.39
2022-08-02T03:56:32.242Z,83.59
2022-08-02T03:59:12.946Z,83.65
2022-08-02T04:01:42.057Z,83.34
2022-08-02T04:04:08.951Z,83.40
2022-08-02T04:06:35.885Z,83.10
2022-08-02T04:09:07.043Z,82.87
2022-08-02T04:11:33.863Z,82.75
2022-08-02T04:14:02.990Z,82.84
2022-08-02T04:16:39.729Z,82.97
2022-08-02T04:19:09.388Z,82.91
2022-08-02T04:21:50.465Z,82.85
2022-08-02T04:24:32.048Z,83.07
2022-08-02T04:27:01.131Z,82.68
2022-08-02T04:29:48.976Z,82.30
2022-08-02T04:32:17.187Z,82.32
2022-08-02T04:35:11.331Z,82.57
2022-08-02T04:37:32.612Z,82.17
2022-08-02T04:39:59.558Z,81.62
2022-08-02T04:42:27.201Z,81.39
2022-08-02T04:44:54.420Z,81.66
2022-08-02T04:47:40.001Z,81.80
2022-08-02T04:50:09.448Z,81.75
2022-08-02T04:52:36.204Z,81.04
2022-08-02T04:55:03.261Z,80.25
2022-08-02T04:57:52.858Z,79.86
2022-08-02T05:00:20.353Z,79.59
2022-08-02T05:02:47.711Z,78.90
2022-08-02T05:05:14.723Z,78.68
2022-08-02T05:07:41.595Z,79.33
2022-08-02T05:10:08.663Z,78.51
2022-08-02T05:12:35.404Z,77.31
2022-08-02T05:15:02.141Z,76.67
2022-08-02T05:17:28.803Z,76.11
2022-08-02T05:19:55.583Z,75.52
2022-08-02T05:22:22.252Z,75.85
2022-08-02T05:24:48.944Z,75.34
2022-08-02T05:27:16.481Z,75.97
2022-08-02T05:29:53.723Z,74.68
2022-08-02T05:32:23.758Z,73.50
2022-08-02T05:34:53.139Z,73.84
2022-08-02T05:37:20.146Z,73.90
2022-08-02T05:39:55.850Z,73.40
2022-08-02T05:42:24.047Z,74.18
2022-08-02T05:44:50.850Z,74.52
2022-08-02T05:47:17.916Z,73.54
2022-08-02T05:49:44.762Z,72.83
2022-08-02T05:52:17.603Z,74.06
2022-08-02T05:54:44.478Z,74.06
2022-08-02T05:57:29.061Z,72.70
2022-08-02T06:00:11.389Z,72.90
2022-08-02T06:03:04.902Z,73.07
2022-08-02T06:05:40.132Z,72.81
2022-08-02T06:08:11.099Z,72.48
2022-08-02T06:10:38.647Z,71.38
2022-08-02T06:13:18.510Z,69.55
2022-08-02T06:15:53.369Z,69.25
2022-08-02T06:18:27.738Z,68.00
2022-08-02T06:22:29.638Z,67.17
2022-08-02T06:23:57.853Z,68.23
2022-08-02T06:26:28.005Z,67.16
2022-08-02T06:28:56.278Z,65.34
2022-08-02T06:31:23.114Z,64.82
2022-08-02T06:33:49.981Z,64.30
2022-08-02T06:36:37.596Z,63.40
2022-08-02T06:39:13.839Z,61.08
2022-08-02T06:41:42.388Z,59.30
2022-08-02T06:44:44.737Z,55.89
2022-08-02T06:47:10.183Z,56.42
2022-08-02T06:49:51.963Z,53.89
2022-08-02T06:52:28.322Z,52.71
2022-08-02T06:54:57.687Z,52.88
2022-08-02T06:57:24.363Z,49.63
2022-08-02T06:59:51.772Z,49.92
2022-08-02T07:02:18.569Z,50.71
2022-08-02T07:04:45.392Z,49.26
2022-08-02T07:07:12.147Z,51.14
2022-08-02T07:09:38.954Z,48.00
2022-08-02T07:12:22.752Z,47.50
2022-08-02T07:14:49.646Z,49.98
2022-08-02T07:17:16.402Z,47.12
2022-08-02T07:19:43.609Z,46.76
2022-08-02T07:22:10.541Z,47.02
2022-08-02T07:24:37.359Z,45.21
2022-08-02T07:27:12.559Z,44.31
2022-08-02T07:29:46.179Z,46.63
2022-08-02T07:32:18.777Z,46.36
2022-08-02T07:34:51.334Z,45.75
2022-08-02T07:37:53.498Z,44.54
2022-08-02T07:40:20.341Z,47.18
2022-08-02T07:42:56.492Z,47.42
2022-08-02T07:45:27.268Z,46.44
2022-08-02T07:47:54.368Z,48.44
2022-08-02T07:50:21.730Z,50.63
2022-08-02T07:52:49.384Z,50.29
2022-08-02T07:55:18.150Z,49.31
2022-08-02T07:57:46.711Z,50.23
2022-08-02T08:00:16.314Z,49.96
2022-08-02T08:02:43.701Z,50.02
2022-08-02T08:05:10.969Z,51.45
2022-08-02T08:07:39.045Z,51.08
2022-08-02T08:10:07.055Z,52.09
2022-08-02T08:12:34.165Z,50.40
2022-08-02T08:15:01.235Z,52.30
2022-08-02T08:17:27.980Z,53.31
2022-08-02T08:19:54.905Z,53.10
2022-08-02T08:22:22.047Z,52.54
2022-08-02T08:24:49.944Z,52.86
2022-08-02T08:27:18.476Z,51.07
2022-08-02T08:29:46.043Z,51.00
2022-08-02T08:32:17.462Z,51.10
2022-08-02T08:34:49.426Z,51.00
2022-08-02T08:37:17.924Z,50.81
2022-08-02T08:39:57.663Z,50.65
2022-08-02T08:42:30.516Z,51.30
2022-08-02T08:44:58.014Z,50.64
2022-08-02T08:47:37.989Z,50.80
2022-08-02T08:50:32.599Z,51.09
2022-08-02T08:53:05.116Z,51.35
2022-08-02T08:55:33.778Z,51.56
2022-08-02T08:58:02.570Z,51.85
2022-08-02T09:00:35.553Z,52.87
2022-08-02T09:03:04.431Z,52.27
2022-08-02T09:05:31.777Z,51.14
2022-08-02T09:07:58.610Z,48.95
2022-08-02T09:10:37.876Z,49.35
2022-08-02T09:13:39.158Z,49.04
2022-08-02T09:16:11.544Z,45.03
2022-08-02T09:18:45.741Z,45.44
2022-08-02T09:21:15.828Z,46.11
2022-08-02T09:23:48.230Z,48.17
2022-08-02T09:26:17.185Z,49.58
2022-08-02T09:28:46.619Z,49.24
2022-08-02T09:31:16.199Z,47.68
2022-08-02T09:33:44.600Z,47.95
2022-08-02T09:36:16.344Z,47.66
2022-08-02T09:39:06.377Z,45.53
2022-08-02T09:41:35.418Z,45.93
2022-08-02T09:44:06.768Z,44.48
2022-08-02T09:46:39.191Z,44.04
2022-08-02T09:49:14.260Z,42.48
2022-08-02T09:51:50.284Z,41.95
2022-08-02T09:54:19.535Z,40.94
2022-08-02T09:56:54.824Z,40.97
2022-08-02T09:59:24.966Z,40.08
2022-08-02T10:02:01.229Z,38.62
2022-08-02T10:04:30.884Z,38.29
2022-08-02T10:07:04.414Z,37.00
2022-08-02T10:09:32.292Z,36.30
2022-08-02T10:12:00.209Z,34.52
2022-08-02T10:14:28.082Z,34.14
2022-08-02T10:16:57.321Z,33.31
2022-08-02T10:20:00.150Z,34.15
2022-08-02T10:22:15.420Z,34.73
2022-08-02T10:24:48.434Z,33.23
2022-08-02T10:27:19.946Z,33.09
2022-08-02T10:29:55.659Z,33.49
2022-08-02T10:32:42.584Z,32.07
2022-08-02T10:35:25.206Z,31.36
2022-08-02T10:37:56.518Z,31.36
2022-08-02T10:40:23.442Z,30.63
2022-08-02T10:42:55.409Z,31.11
2022-08-02T10:45:22.847Z,32.41
2022-08-02T10:48:01.682Z,29.42
2022-08-02T10:50:46.991Z,29.53
2022-08-02T10:53:33.703Z,29.71
2022-08-02T10:56:06.238Z,29.10
2022-08-02T10:58:36.425Z,29.00
2022-08-02T11:01:38.983Z,29.44
2022-08-02T11:04:10.523Z,26.65
2022-08-02T11:07:26.762Z,26.52
2022-08-02T11:09:53.593Z,25.55
2022-08-02T11:12:21.291Z,26.14
2022-08-02T11:15:07.360Z,27.04
2022-08-02T11:17:58.914Z,26.98
2022-08-02T11:20:27.285Z,26.65
2022-08-02T11:22:55.959Z,24.52
2022-08-02T11:25:22.752Z,25.91
2022-08-02T11:27:50.307Z,25.77
2022-08-02T11:30:17.430Z,25.30
2022-08-02T11:32:44.841Z,26.13
2022-08-02T11:35:12.042Z,23.79
2022-08-02T11:37:41.394Z,26.17
2022-08-02T11:40:19.131Z,26.31
2022-08-02T11:42:53.550Z,25.04
2022-08-02T11:45:29.300Z,25.33
2022-08-02T11:47:57.324Z,24.27
2022-08-02T11:50:29.671Z,22.53
2022-08-02T11:52:57.644Z,23.87
2022-08-02T11:55:28.956Z,23.95
2022-08-02T11:58:05.962Z,24.21
2022-08-02T12:00:33.317Z,24.42
2022-08-02T12:03:00.319Z,22.49
2022-08-02T12:06:05.587Z,23.14
2022-08-02T12:08:14.214Z,23.59
2022-08-02T12:10:50.051Z,23.52
2022-08-02T12:13:16.884Z,22.65
2022-08-02T12:15:46.135Z,22.15
2022-08-02T12:18:41.796Z,21.81
2022-08-02T12:21:22.183Z,21.24
2022-08-02T12:23:59.292Z,21.92
2022-08-02T12:26:27.961Z,19.89
2022-08-02T12:29:01.407Z,18.55
2022-08-02T12:31:57.267Z,18.15
2022-08-02T12:34:31.735Z,16.71
2022-08-02T12:37:07.248Z,16.36
2022-08-02T12:39:46.397Z,17.53
2022-08-02T12:42:15.707Z,17.35
2022-08-02T12:44:53.261Z,17.07
2022-08-02T12:47:21.820Z,17.08
2022-08-02T12:50:15.303Z,16.86
2022-08-02T12:52:42.072Z,15.84
2022-08-02T12:56:00.786Z,15.97
2022-08-02T12:58:15.514Z,11.49
2022-08-02T13:00:53.022Z,12.71
2022-08-02T13:04:10.058Z,14.13
2022-08-02T13:06:39.443Z,14.26
2022-08-02T13:08:55.409Z,13.54
2022-08-02T13:11:22.963Z,13.84
2022-08-02T13:13:49.818Z,13.69
2022-08-02T13:16:17.262Z,14.19
2022-08-02T13:18:45.664Z,14.18
2022-08-02T13:21:19.753Z,13.90
2022-08-02T13:23:59.469Z,13.47
2022-08-02T13:26:31.048Z,12.83
2022-08-02T13:28:58.250Z,12.48
2022-08-02T13:31:36.084Z,13.30
2022-08-02T13:34:08.489Z,12.96
2022-08-02T13:36:36.328Z,13.05
2022-08-02T13:39:04.538Z,12.33
2022-08-02T13:41:32.623Z,12.94
2022-08-02T13:44:08.868Z,13.26
2022-08-02T13:46:45.295Z,12.93
2022-08-02T13:49:19.386Z,14.18
2022-08-02T13:51:47.829Z,14.72
2022-08-02T13:54:15.505Z,15.01
2022-08-02T13:56:42.506Z,14.72
2022-08-02T13:59:55.322Z,14.95
2022-08-02T14:01:56.825Z,15.64
2022-08-02T14:04:24.330Z,16.13
2022-08-02T14:06:51.559Z,16.95
2022-08-02T14:09:18.517Z,17.20
2022-08-02T14:11:46.389Z,15.61
2022-08-02T14:14:16.281Z,16.24
2022-08-02T14:16:45.116Z,16.42
2022-08-02T14:19:16.483Z,17.03
2022-08-02T14:21:46.507Z,16.38
2022-08-02T14:24:19.316Z,16.83
2022-08-02T14:26:47.173Z,16.67
2022-08-02T14:29:15.019Z,16.94
2022-08-02T14:31:44.726Z,18.15
2022-08-02T14:34:13.301Z,18.22
2022-08-02T14:36:40.461Z,18.61
2022-08-02T14:39:07.307Z,19.24
2022-08-02T14:41:59.604Z,20.50
2022-08-02T14:44:23.562Z,19.83
2022-08-02T14:46:51.573Z,19.78
2022-08-02T14:49:25.306Z,19.87
2022-08-02T14:51:55.873Z,20.17
2022-08-02T14:54:29.978Z,20.31
2022-08-02T14:57:02.464Z,20.30
2022-08-02T14:59:30.290Z,20.49
2022-08-02T15:01:58.235Z,19.28
2022-08-02T15:04:25.318Z,19.62
2022-08-02T15:06:52.181Z,20.92
2022-08-02T15:09:19.435Z,21.17
2022-08-02T15:11:48.839Z,22.24
2022-08-02T15:14:25.567Z,22.77
2022-08-02T15:16:58.529Z,23.41
2022-08-02T15:19:41.616Z,24.14
2022-08-02T15:22:16.120Z,23.99
2022-08-02T15:24:45.352Z,24.36
2022-08-02T15:27:15.513Z,24.43
2022-08-02T15:29:46.656Z,24.65
2022-08-02T15:32:18.827Z,25.15
2022-08-02T15:34:47.693Z,25.17
2022-08-02T15:37:14.592Z,26.36
2022-08-02T15:39:42.135Z,25.75
2022-08-02T15:42:08.818Z,25.85
2022-08-02T15:44:35.769Z,26.06
2022-08-02T15:47:07.002Z,26.94
2022-08-02T15:49:38.078Z,26.62
2022-08-02T15:52:07.617Z,26.99
2022-08-02T15:54:34.377Z,27.82
2022-08-02T15:57:01.148Z,27.67
2022-08-02T15:59:28.323Z,28.39
2022-08-02T16:01:55.439Z,29.32
2022-08-02T16:04:22.479Z,28.16
2022-08-02T16:06:49.386Z,27.46
2022-08-02T16:09:17.171Z,27.75
2022-08-02T16:11:44.070Z,27.88
2022-08-02T16:14:10.841Z,28.59
2022-08-02T16:16:37.826Z,28.56
2022-08-02T16:19:47.040Z,28.04
2022-08-02T16:21:54.212Z,28.89
2022-08-02T16:24:21.745Z,28.90
2022-08-02T16:26:48.936Z,28.89
2022-08-02T16:29:19.051Z,28.95
2022-08-02T16:31:49.637Z,29.82
2022-08-02T16:34:17.235Z,31.54
2022-08-02T16:36:44.547Z,31.76
2022-08-02T16:39:12.194Z,30.28
2022-08-02T16:41:50.888Z,30.71
2022-08-02T16:44:28.955Z,31.32
2022-08-02T16:47:01.038Z,31.90
2022-08-02T16:50:06.520Z,31.77
2022-08-02T16:52:16.582Z,31.72
2022-08-02T16:54:49.937Z,32.04
2022-08-02T16:57:20.114Z,32.47
2022-08-02T16:59:58.243Z,33.66
2022-08-02T17:02:27.822Z,33.84
2022-08-02T17:04:54.825Z,33.96
2022-08-02T17:08:15.198Z,35.10
2022-08-02T17:10:09.743Z,38.56
2022-08-02T17:12:37.784Z,39.36
2022-08-02T17:16:07.449Z,39.40
2022-08-02T17:17:53.267Z,39.94
2022-08-02T17:20:20.735Z,40.50
2022-08-02T17:22:47.800Z,41.74
2022-08-02T17:25:17.489Z,41.40
2022-08-02T17:27:45.761Z,40.83
2022-08-02T17:30:13.661Z,41.09
2022-08-02T17:32:45.543Z,40.75
2022-08-02T17:35:15.745Z,40.29
2022-08-02T17:37:54.611Z,38.54
2022-08-02T17:40:27.082Z,40.04
2022-08-02T17:42:53.834Z,39.46
2022-08-02T17:45:25.911Z,39.06
2022-08-02T17:48:07.841Z,39.80
2022-08-02T17:50:36.069Z,39.76
2022-08-02T17:53:04.157Z,40.25
2022-08-02T17:55:33.124Z,40.14
2022-08-02T17:58:00.160Z,40.96
2022-08-02T18:00:35.130Z,41.71
2022-08-02T18:03:06.130Z,41.73
2022-08-02T18:05:40.055Z,42.00
2022-08-02T18:08:22.881Z,41.64
2022-08-02T18:10:55.695Z,41.35
2022-08-02T18:13:23.176Z,42.20
2022-08-02T18:15:57.048Z,41.52
2022-08-02T18:18:29.179Z,41.72
2022-08-02T18:20:58.053Z,43.03
2022-08-02T18:23:25.297Z,42.99
2022-08-02T18:25:55.427Z,43.98
2022-08-02T18:28:26.839Z,43.53
2022-08-02T18:30:53.951Z,44.46
2022-08-02T18:33:57.104Z,44.37
2022-08-02T18:36:11.504Z,43.84
2022-08-02T18:38:51.843Z,44.29
2022-08-02T18:41:19.319Z,45.55
2022-08-02T18:43:48.423Z,45.72
2022-08-02T18:46:17.317Z,46.12
2022-08-02T18:48:48.286Z,46.31
2022-08-02T18:51:19.204Z,46.12
2022-08-02T18:53:46.692Z,46.56
2022-08-02T18:56:19.777Z,46.69
2022-08-02T18:58:54.681Z,47.86
2022-08-02T19:01:33.482Z,48.27
2022-08-02T19:04:03.888Z,48.27
2022-08-02T19:06:31.032Z,48.97
2022-08-02T19:09:06.200Z,49.92
2022-08-02T19:11:47.586Z,50.79
2022-08-02T19:14:24.096Z,51.58
2022-08-02T19:16:56.321Z,51.58
2022-08-02T19:19:28.502Z,51.03
2022-08-02T19:22:15.925Z,51.45
2022-08-02T19:24:45.809Z,51.52
2022-08-02T19:27:15.041Z,51.91
2022-08-02T19:29:48.816Z,51.91
2022-08-02T19:32:42.031Z,52.59
2022-08-02T19:35:19.699Z,52.74
2022-08-02T19:37:52.392Z,52.85
2022-08-02T19:40:24.204Z,52.78
2022-08-02T19:44:22.906Z,53.01
2022-08-02T19:45:50.814Z,53.04
2022-08-02T19:48:24.447Z,54.27
2022-08-02T19:50:56.149Z,54.91
2022-08-02T19:53:28.925Z,54.32
2022-08-02T19:56:00.585Z,54.58
2022-08-02T19:58:30.987Z,55.16
2022-08-02T20:00:59.344Z,54.62
2022-08-02T20:03:29.970Z,54.84
2022-08-02T20:06:17.794Z,55.16
2022-08-02T20:08:52.855Z,55.10
2022-08-02T20:11:23.304Z,56.86
2022-08-02T20:13:52.741Z,57.03
2022-08-02T20:16:27.245Z,56.45
2022-08-02T20:18:56.321Z,56.71
2022-08-02T20:21:36.366Z,56.40
2022-08-02T20:24:09.367Z,55.86
2022-08-02T20:26:47.057Z,56.91
2022-08-02T20:29:15.467Z,57.69
2022-08-02T20:32:03.001Z,57.79
2022-08-02T20:34:29.768Z,57.55
2022-08-02T20:36:56.537Z,57.84
2022-08-02T20:39:23.803Z,57.24
2022-08-02T20:42:10.068Z,57.71
2022-08-02T20:44:53.947Z,57.35
2022-08-02T20:47:27.830Z,56.39
2022-08-02T20:50:30.275Z,54.77
2022-08-02T20:52:57.593Z,54.89
2022-08-02T20:55:25.042Z,54.81
2022-08-02T20:58:00.303Z,55.16
2022-08-02T21:00:28.272Z,55.14
2022-08-02T21:02:55.691Z,55.26
2022-08-02T21:05:26.909Z,54.31
2022-08-02T21:08:13.758Z,54.17
2022-08-02T21:10:43.683Z,54.29
2022-08-02T21:13:18.978Z,54.69
2022-08-02T21:15:49.587Z,54.58
2022-08-02T21:18:23.733Z,55.18
2022-08-02T21:20:57.766Z,55.16
2022-08-02T21:23:24.507Z,55.12
2022-08-02T21:25:57.487Z,55.58
2022-08-02T21:28:38.295Z,55.47
2022-08-02T21:31:13.524Z,55.60
2022-08-02T21:33:57.075Z,55.49
2022-08-02T21:36:30.460Z,56.05
2022-08-02T21:39:05.249Z,56.19
2022-08-02T21:41:39.499Z,56.23
2022-08-02T21:44:18.880Z,56.31
2022-08-02T21:46:49.284Z,56.43
2022-08-02T21:49:20.967Z,56.22
2022-08-02T21:52:07.507Z,56.26
2022-08-02T21:54:35.474Z,56.36
2022-08-02T21:57:06.948Z,56.19
2022-08-02T21:59:35.042Z,56.46
2022-08-02T22:02:02.165Z,56.23
2022-08-02T22:04:29.062Z,56.76
2022-08-02T22:06:57.034Z,56.33
2022-08-02T22:09:44.685Z,56.65
2022-08-02T22:12:17.991Z,56.37
2022-08-02T22:14:54.088Z,56.64
2022-08-02T22:17:51.686Z,56.54
2022-08-02T22:20:12.442Z,56.89
2022-08-02T22:22:39.787Z,57.51
2022-08-02T22:25:10.243Z,56.59
2022-08-02T22:28:36.732Z,56.69
2022-08-02T22:30:41.050Z,56.22
2022-08-02T22:36:14.054Z,55.84
2022-08-02T22:38:44.390Z,55.44
2022-08-02T22:42:01.889Z,55.97
2022-08-02T22:44:18.630Z,56.64
2022-08-02T22:46:46.524Z,57.06
2022-08-02T22:49:37.186Z,56.72
2022-08-02T22:51:59.994Z,55.99
2022-08-02T22:54:26.732Z,55.72
2022-08-02T22:56:53.437Z,55.64
2022-08-02T22:59:05.141Z,56.03
2022-08-02T22:59:20.323Z,54.78
2022-08-02T23:02:06.487Z,54.89
2022-08-02T23:04:33.233Z,55.47
2022-08-02T23:07:00.001Z,55.56
2022-08-02T23:09:26.834Z,56.63
2022-08-02T23:11:53.698Z,57.07
2022-08-02T23:14:20.623Z,56.96
2022-08-02T23:17:07.622Z,57.22
2022-08-02T23:19:52.691Z,56.74
2022-08-02T23:22:25.136Z,57.61
2022-08-02T23:24:57.764Z,57.37
2022-08-02T23:27:24.636Z,56.94
2022-08-02T23:29:51.453Z,55.72
2022-08-02T23:32:18.471Z,55.56
2022-08-02T23:34:52.715Z,55.90
2022-08-02T23:37:19.640Z,56.50
2022-08-02T23:39:46.575Z,55.94
2022-08-02T23:42:13.462Z,54.86
2022-08-02T23:44:40.553Z,54.97
2022-08-02T23:47:07.661Z,54.54
2022-08-02T23:49:34.798Z,55.37
2022-08-02T23:52:02.206Z,54.48
2022-08-02T23:54:29.385Z,54.04
2022-08-02T23:56:56.193Z,53.20
2022-08-02T23:59:23.153Z,53.80
